Time;durP1;ratioP1;P1;durP2;ratioP2;P2;SDS_P1;SDS_P2;PMS_P1;PMS_P2;Temp;Humidity;BMP_temperature;BMP_pressure;BME280_temperature;BME280_humidity;BME280_pressure;Samples;Min_cycle;Max_cycle;Signal;HPM_P1;HPM_P2
2022/04/27 00:01:14;;;;;;;8.50;7.53;;;14.40;99.90;;;;;;4974199;28;20038;-65
2022/04/27 00:03:40;;;;;;;14.32;8.48;;;14.20;99.90;;;;;;4974195;28;20502;-65
2022/04/27 00:06:08;;;;;;;14.52;7.95;;;14.30;99.90;;;;;;4956669;28;20113;-65
2022/04/27 00:08:34;;;;;;;8.98;7.70;;;14.30;99.90;;;;;;4974220;28;20022;-65
2022/04/27 00:11:00;;;;;;;8.60;7.43;;;14.40;99.90;;;;;;4976827;28;20089;-65
2022/04/27 00:13:26;;;;;;;8.02;7.28;;;14.30;99.90;;;;;;4960606;28;20099;-66
2022/04/27 00:15:52;;;;;;;8.00;7.05;;;14.30;99.90;;;;;;4977967;28;20031;-66
2022/04/27 00:18:18;;;;;;;13.40;8.13;;;14.30;99.90;;;;;;4977621;28;20486;-66
2022/04/27 00:20:44;;;;;;;10.35;8.57;;;14.30;99.90;;;;;;4977975;28;20495;-66
2022/04/27 00:23:09;;;;;;;9.93;8.10;;;14.30;99.90;;;;;;4960412;28;20026;-68
2022/04/27 00:25:36;;;;;;;8.98;8.07;;;14.30;99.90;;;;;;4977831;28;20380;-68
2022/04/27 00:28:02;;;;;;;12.98;7.93;;;14.30;99.90;;;;;;4960277;28;20439;-68
2022/04/27 00:30:28;;;;;;;10.43;7.63;;;14.40;99.90;;;;;;4977516;28;20030;-67
2022/04/27 00:32:54;;;;;;;8.52;7.72;;;14.40;99.90;;;;;;4977643;28;20034;-67
2022/04/27 00:35:20;;;;;;;8.85;7.88;;;14.40;99.90;;;;;;4977626;28;20033;-67
2022/04/27 00:37:46;;;;;;;9.57;7.70;;;14.30;99.90;;;;;;4977236;28;20027;-68
2022/04/27 00:40:12;;;;;;;12.05;7.72;;;14.30;99.90;;;;;;4960191;28;20121;-67
2022/04/27 00:42:38;;;;;;;9.75;8.40;;;14.30;99.90;;;;;;4977477;28;20043;-67
2022/04/27 00:45:05;;;;;;;10.38;8.13;;;14.30;99.90;;;;;;4977448;28;20034;-66
2022/04/27 00:47:31;;;;;;;11.02;8.60;;;14.40;99.90;;;;;;4959852;28;20113;-67
2022/04/27 00:49:58;;;;;;;9.70;8.30;;;14.40;99.90;;;;;;4977388;28;20058;-66
2022/04/27 00:52:24;;;;;;;10.73;7.25;;;14.40;99.90;;;;;;4977300;28;20042;-66
2022/04/27 00:54:55;;;;;;;9.30;7.63;;;14.40;99.90;;;;;;4977246;28;20031;-67
2022/04/27 00:57:24;;;;;;;10.50;7.65;;;14.40;99.90;;;;;;4977260;28;20031;-65
2022/04/27 00:59:51;;;;;;;7.53;6.25;;;14.40;99.90;;;;;;4959737;28;20027;-63
2022/04/27 01:02:17;;;;;;;9.90;6.35;;;14.50;99.90;;;;;;4976881;28;20085;-63
2022/04/27 01:04:43;;;;;;;7.82;7.00;;;14.60;99.90;;;;;;4977128;28;20423;-63
2022/04/27 01:07:11;;;;;;;8.40;6.50;;;14.60;99.90;;;;;;4977318;28;20181;-63
2022/04/27 01:09:37;;;;;;;8.13;6.28;;;14.60;99.90;;;;;;4977009;28;20034;-63
2022/04/27 01:12:04;;;;;;;6.40;5.70;;;14.60;99.90;;;;;;4976690;28;20434;-63
2022/04/27 01:14:45;;;;;;;7.68;5.88;;;14.70;99.90;;;;;;4959511;28;20030;-63
2022/04/27 01:17:11;;;;;;;7.90;5.65;;;14.70;99.90;;;;;;4976924;28;20070;-63
2022/04/27 01:19:37;;;;;;;7.97;6.18;;;14.70;99.90;;;;;;4959483;28;20058;-63
2022/04/27 01:22:04;;;;;;;8.13;6.82;;;14.60;99.90;;;;;;4959085;28;20463;-63
2022/04/27 01:24:30;;;;;;;8.80;6.88;;;14.50;99.90;;;;;;4976775;28;20038;-63
2022/04/27 01:26:56;;;;;;;8.85;7.38;;;14.40;99.90;;;;;;4976693;28;20034;-63
2022/04/27 01:29:23;;;;;;;9.57;7.63;;;14.40;99.90;;;;;;4976665;28;20035;-63
2022/04/27 01:31:50;;;;;;;8.15;7.32;;;14.30;99.90;;;;;;4958875;28;20136;-62
2022/04/27 01:34:17;;;;;;;8.95;6.95;;;14.20;99.90;;;;;;4976559;28;20023;-64
2022/04/27 01:36:43;;;;;;;7.68;6.30;;;14.30;99.90;;;;;;4976522;28;20034;-63
2022/04/27 01:39:09;;;;;;;7.95;6.30;;;14.20;99.90;;;;;;4976565;28;20540;-64
2022/04/27 01:41:36;;;;;;;7.90;7.10;;;14.20;99.90;;;;;;4976716;28;20054;-64
2022/04/27 01:44:03;;;;;;;9.98;7.72;;;14.00;99.90;;;;;;4976391;28;20034;-64
2022/04/27 01:46:29;;;;;;;10.32;7.90;;;14.00;99.90;;;;;;4976355;28;20022;-64
2022/04/27 01:48:55;;;;;;;8.95;7.72;;;13.90;99.90;;;;;;4976304;28;20055;-65
2022/04/27 01:54:15;;;;;;;9.88;7.82;;;13.80;99.90;;;;;;4976260;28;20391;-65
2022/04/27 01:56:48;;;;;;;10.57;7.93;;;13.80;99.90;;;;;;4976199;28;20026;-64
2022/04/27 01:59:15;;;;;;;10.52;8.40;;;13.70;99.90;;;;;;4976157;28;20031;-64
2022/04/27 02:01:42;;;;;;;9.20;7.40;;;13.70;99.90;;;;;;4958687;28;20038;-65
2022/04/27 02:04:08;;;;;;;12.57;7.22;;;13.80;99.90;;;;;;4976007;28;20151;-65
2022/04/27 02:06:37;;;;;;;9.40;7.30;;;13.80;99.90;;;;;;4976248;28;20050;-64
2022/04/27 02:09:04;;;;;;;9.07;7.75;;;13.80;99.90;;;;;;4975909;28;20117;-65
2022/04/27 02:11:30;;;;;;;11.15;8.23;;;13.80;99.90;;;;;;4975865;28;20550;-64
2022/04/27 02:13:56;;;;;;;12.77;10.32;;;13.80;99.90;;;;;;4975883;28;20027;-63
2022/04/27 02:16:23;;;;;;;11.95;9.85;;;13.80;99.90;;;;;;4958228;28;20022;-64
2022/04/27 02:18:49;;;;;;;11.55;9.88;;;13.80;99.90;;;;;;4958383;28;20027;-64
2022/04/27 02:21:16;;;;;;;10.23;8.40;;;13.90;99.90;;;;;;4975757;28;20121;-67
2022/04/27 02:23:42;;;;;;;10.45;9.02;;;13.90;99.90;;;;;;4975609;28;20085;-65
2022/04/27 02:26:08;;;;;;;13.90;9.45;;;14.00;99.90;;;;;;4975619;28;20039;-65
2022/04/27 02:28:34;;;;;;;11.65;9.02;;;14.00;99.90;;;;;;4975559;28;20031;-66
2022/04/27 02:31:00;;;;;;;13.30;10.23;;;14.00;99.90;;;;;;4957769;28;20072;-66
2022/04/27 02:33:28;;;;;;;12.95;9.50;;;14.00;99.90;;;;;;4974548;28;20089;-66
2022/04/27 02:35:54;;;;;;;12.60;10.13;;;14.00;99.90;;;;;;4957999;28;20027;-65
2022/04/27 02:38:20;;;;;;;10.95;9.65;;;14.00;99.90;;;;;;4975669;28;20031;-66
2022/04/27 02:40:45;;;;;;;13.90;9.63;;;14.00;99.90;;;;;;4975429;28;20022;-66
2022/04/27 02:43:11;;;;;;;12.52;9.05;;;14.10;99.90;;;;;;4975302;28;20361;-67
2022/04/27 02:45:37;;;;;;;12.90;8.43;;;14.10;99.90;;;;;;4975541;28;20372;-66
2022/04/27 02:48:03;;;;;;;14.77;9.98;;;14.20;99.90;;;;;;4975250;28;20456;-66
2022/04/27 02:53:13;;;;;;;12.52;10.18;;;14.10;99.90;;;;;;4974949;28;20038;-65
2022/04/27 02:55:39;;;;;;;11.30;9.73;;;14.10;99.90;;;;;;4975072;28;20031;-66
2022/04/27 02:58:05;;;;;;;11.52;10.05;;;14.10;99.90;;;;;;4975308;28;20030;-65
2022/04/27 03:00:31;;;;;;;17.50;10.68;;;14.10;99.90;;;;;;4975157;28;20034;-67
2022/04/27 03:02:57;;;;;;;12.95;10.52;;;14.00;99.90;;;;;;4974867;28;20117;-67
2022/04/27 03:05:23;;;;;;;17.58;11.07;;;14.10;99.90;;;;;;4957420;28;20031;-67
2022/04/27 03:07:49;;;;;;;17.83;11.07;;;14.00;99.90;;;;;;4957070;28;20033;-66
2022/04/27 03:10:15;;;;;;;15.98;11.27;;;14.00;99.90;;;;;;4957375;28;20384;-67
2022/04/27 03:12:41;;;;;;;15.02;11.52;;;14.00;99.90;;;;;;4974785;28;20038;-65
2022/04/27 03:15:07;;;;;;;13.98;11.65;;;14.00;99.90;;;;;;4974764;28;20034;-66
2022/04/27 03:17:33;;;;;;;13.93;10.68;;;13.90;99.90;;;;;;4974714;28;20496;-68
2022/04/27 03:19:59;;;;;;;14.10;11.13;;;13.90;99.90;;;;;;4974675;28;20035;-66
2022/04/27 03:22:25;;;;;;;24.15;12.15;;;13.80;99.90;;;;;;4957220;28;20035;-64
2022/04/27 03:24:51;;;;;;;16.65;11.75;;;13.80;99.90;;;;;;4957202;28;20026;-64
2022/04/27 03:27:16;;;;;;;21.42;12.90;;;13.80;99.90;;;;;;4974825;28;20532;-64
2022/04/27 03:29:42;;;;;;;23.45;12.95;;;13.80;99.90;;;;;;4957083;28;20530;-65
2022/04/27 03:32:10;;;;;;;16.48;11.05;;;13.80;99.90;;;;;;4956487;28;20078;-64
2022/04/27 03:34:36;;;;;;;17.65;12.07;;;13.70;99.90;;;;;;4957071;28;20038;-64
2022/04/27 03:37:02;;;;;;;15.90;11.75;;;13.60;99.90;;;;;;4974039;28;20357;-64
2022/04/27 03:39:28;;;;;;;18.88;11.90;;;13.60;99.90;;;;;;4974320;28;20460;-63
2022/04/27 03:41:54;;;;;;;16.38;12.00;;;13.50;99.90;;;;;;4974412;28;20081;-63
2022/04/27 03:44:20;;;;;;;19.63;12.45;;;13.50;99.90;;;;;;4974320;28;20058;-63
2022/04/27 03:46:45;;;;;;;13.32;11.70;;;13.50;99.90;;;;;;4974615;28;20027;-63
2022/04/27 03:49:11;;;;;;;18.23;11.70;;;13.50;99.90;;;;;;4974324;28;20062;-64
2022/04/27 03:51:37;;;;;;;15.10;11.05;;;13.50;99.90;;;;;;4956786;28;20538;-64
2022/04/27 03:54:03;;;;;;;16.70;11.35;;;13.50;99.90;;;;;;4974258;28;20023;-64
2022/04/27 03:56:29;;;;;;;16.20;11.68;;;13.50;99.90;;;;;;4956883;28;20023;-64
2022/04/27 03:58:55;;;;;;;13.98;10.50;;;13.60;99.90;;;;;;4974171;28;20146;-64
2022/04/27 04:01:20;;;;;;;13.90;10.85;;;13.60;99.90;;;;;;4956803;28;20084;-63
2022/04/27 04:03:46;;;;;;;14.88;11.02;;;13.60;99.90;;;;;;4974156;28;20026;-63
2022/04/27 04:06:12;;;;;;;15.13;11.23;;;13.50;99.90;;;;;;4974020;28;20027;-63
2022/04/27 04:08:38;;;;;;;19.70;11.63;;;13.50;99.90;;;;;;4974136;28;20031;-65
2022/04/27 04:11:04;;;;;;;19.55;15.25;;;13.50;99.90;;;;;;4974082;28;20051;-64
2022/04/27 04:13:30;;;;;;;19.92;16.63;;;13.50;99.90;;;;;;4974095;28;20069;-64
2022/04/27 04:15:56;;;;;;;26.10;19.02;;;13.40;99.90;;;;;;4956628;28;20034;-64
2022/04/27 04:18:21;;;;;;;21.88;17.73;;;13.40;99.90;;;;;;4974041;28;20031;-66
2022/04/27 04:20:47;;;;;;;27.98;21.15;;;13.50;99.90;;;;;;4956558;28;20035;-65
2022/04/27 04:23:13;;;;;;;37.50;26.98;;;13.50;99.90;;;;;;4973898;28;20042;-64
2022/04/27 04:28:32;;;;;;;28.02;20.45;;;13.50;99.90;;;;;;4973726;28;20503;-66
2022/04/27 04:31:00;;;;;;;23.90;18.33;;;13.60;99.90;;;;;;4973716;28;20047;-65
2022/04/27 04:33:27;;;;;;;29.73;22.10;;;13.70;99.90;;;;;;4956451;28;20531;-64
2022/04/27 04:35:53;;;;;;;41.00;26.88;;;13.70;99.90;;;;;;4973891;28;20033;-66
2022/04/27 04:38:19;;;;;;;37.00;25.95;;;13.70;99.90;;;;;;4973883;28;20110;-66
2022/04/27 04:40:45;;;;;;;42.05;29.63;;;13.80;99.90;;;;;;4973819;28;20134;-65
2022/04/27 04:43:11;;;;;;;40.15;28.52;;;13.80;99.90;;;;;;4973856;28;20023;-66
2022/04/27 04:45:38;;;;;;;32.17;23.73;;;13.80;99.90;;;;;;4974093;28;20507;-68
2022/04/27 04:48:04;;;;;;;32.30;25.15;;;13.90;99.90;;;;;;4973830;28;20077;-67
2022/04/27 04:50:30;;;;;;;48.30;35.33;;;14.00;99.90;;;;;;4973724;28;20037;-67
2022/04/27 04:52:56;;;;;;;49.42;30.55;;;14.10;99.90;;;;;;4973728;28;20038;-66
2022/04/27 04:55:22;;;;;;;33.75;21.80;;;14.20;99.90;;;;;;4973768;28;20143;-66
2022/04/27 04:57:48;;;;;;;27.38;19.65;;;14.30;99.90;;;;;;4977526;28;20037;-68
2022/04/27 05:00:14;;;;;;;38.25;24.10;;;14.40;99.90;;;;;;4977464;28;20423;-67
2022/04/27 05:02:40;;;;;;;32.92;24.55;;;14.50;99.90;;;;;;4977168;28;20031;-67
2022/04/27 05:05:06;;;;;;;20.75;15.88;;;14.60;99.90;;;;;;4977153;28;20460;-67
2022/04/27 05:07:35;;;;;;;21.88;14.23;;;14.60;99.90;;;;;;4977024;28;20061;-67
2022/04/27 05:10:02;;;;;;;23.85;14.90;;;14.70;99.90;;;;;;4976942;28;20035;-67
2022/04/27 05:12:29;;;;;;;20.30;13.48;;;14.80;99.90;;;;;;4976610;28;20031;-68
2022/04/27 05:14:55;;;;;;;19.73;13.00;;;14.90;99.90;;;;;;4976887;28;20052;-65
2022/04/27 05:17:22;;;;;;;21.17;14.18;;;14.80;99.90;;;;;;4959564;28;20083;-65
2022/04/27 05:19:52;;;;;;;16.30;13.63;;;14.80;99.90;;;;;;4976496;28;20508;-65
2022/04/27 05:22:18;;;;;;;18.98;13.05;;;14.80;99.90;;;;;;4976774;28;20041;-67
2022/04/27 05:24:44;;;;;;;18.13;13.18;;;14.80;99.90;;;;;;4976694;28;20026;-65
2022/04/27 05:27:10;;;;;;;15.38;12.13;;;14.80;99.90;;;;;;4959233;28;20037;-66
2022/04/27 05:32:20;;;;;;;19.75;12.95;;;14.80;99.90;;;;;;4976035;28;20102;-66
2022/04/27 05:34:47;;;;;;;17.95;11.23;;;14.80;99.90;;;;;;4976442;28;20030;-66
2022/04/27 05:37:13;;;;;;;14.55;11.95;;;14.90;99.90;;;;;;4976366;28;20030;-66
2022/04/27 05:39:39;;;;;;;15.07;12.65;;;15.00;99.90;;;;;;4976383;28;20035;-67
2022/04/27 05:42:05;;;;;;;18.55;12.52;;;15.10;99.90;;;;;;4976668;28;20034;-67
2022/04/27 05:44:31;;;;;;;15.80;12.52;;;15.20;99.90;;;;;;4976296;28;20031;-67
2022/04/27 05:46:57;;;;;;;18.60;12.35;;;15.20;99.90;;;;;;4976253;28;20035;-67
2022/04/27 05:49:24;;;;;;;14.18;12.23;;;15.20;99.90;;;;;;4976534;28;20027;-67
2022/04/27 05:51:50;;;;;;;16.02;12.85;;;15.30;99.90;;;;;;4975919;28;20066;-66
2022/04/27 05:54:16;;;;;;;18.98;11.63;;;15.40;99.90;;;;;;4976190;28;20026;-67
2022/04/27 05:56:43;;;;;;;16.40;12.55;;;15.60;99.90;;;;;;4976107;28;20034;-66
2022/04/27 05:59:12;;;;;;;13.15;11.38;;;15.70;99.90;;;;;;4975687;28;20395;-66
2022/04/27 06:01:38;;;;;;;15.38;11.43;;;15.70;99.90;;;;;;4958644;28;20459;-66
2022/04/27 06:04:04;;;;;;;13.30;10.70;;;15.60;99.90;;;;;;4975620;28;20127;-65
2022/04/27 06:06:30;;;;;;;13.15;10.52;;;15.70;99.90;;;;;;4975888;28;20031;-65
2022/04/27 06:08:56;;;;;;;15.43;10.63;;;15.70;99.90;;;;;;4957768;28;20031;-66
2022/04/27 06:11:22;;;;;;;12.82;10.43;;;15.70;99.90;;;;;;4975798;28;20034;-66
2022/04/27 06:13:48;;;;;;;14.10;10.50;;;15.90;99.90;;;;;;4975851;28;20479;-65
2022/04/27 06:16:15;;;;;;;12.93;11.02;;;15.90;99.90;;;;;;4975734;28;20043;-65
2022/04/27 06:18:41;;;;;;;13.68;11.68;;;16.10;99.90;;;;;;4975710;28;20037;-66
2022/04/27 06:21:08;;;;;;;14.48;9.85;;;16.10;99.90;;;;;;4958273;28;20046;-65
2022/04/27 06:23:35;;;;;;;10.80;9.75;;;16.10;99.90;;;;;;4958278;28;20099;-66
2022/04/27 06:26:01;;;;;;;12.40;9.20;;;16.00;99.90;;;;;;4958178;28;20057;-65
2022/04/27 06:28:26;;;;;;;13.23;10.15;;;15.90;99.90;;;;;;4975623;28;20464;-64
2022/04/27 06:30:52;;;;;;;11.77;9.73;;;15.80;99.90;;;;;;4975122;28;20121;-65
2022/04/27 06:33:19;;;;;;;13.55;9.15;;;15.80;99.90;;;;;;4975448;28;20035;-67
2022/04/27 06:35:46;;;;;;;12.75;8.13;;;15.80;99.90;;;;;;4974040;28;20030;-64
2022/04/27 06:38:12;;;;;;;12.73;8.60;;;15.90;99.90;;;;;;4974168;28;20109;-66
2022/04/27 06:40:38;;;;;;;11.40;9.40;;;16.10;99.90;;;;;;4975478;28;20495;-64
2022/04/27 06:43:03;;;;;;;14.13;9.15;;;16.30;99.90;;;;;;4975499;28;20468;-64
2022/04/27 06:45:31;;;;;;;11.10;8.45;;;16.30;99.90;;;;;;4975159;28;20026;-65
2022/04/27 06:47:57;;;;;;;13.25;10.25;;;16.40;99.90;;;;;;4975115;28;20688;-66
2022/04/27 06:50:25;;;;;;;16.85;9.63;;;16.40;99.90;;;;;;4957501;28;20530;-64
2022/04/27 06:52:52;;;;;;;11.15;9.77;;;16.50;99.90;;;;;;4975037;28;20031;-65
2022/04/27 06:55:18;;;;;;;15.77;9.65;;;16.60;99.90;;;;;;4974981;28;20023;-64
2022/04/27 06:57:44;;;;;;;10.13;9.13;;;16.60;99.90;;;;;;4974996;28;20027;-65
2022/04/27 07:00:12;;;;;;;13.80;9.95;;;16.70;99.90;;;;;;4957204;28;20027;-66
2022/04/27 07:02:39;;;;;;;22.38;12.75;;;16.80;99.90;;;;;;4974847;28;20480;-68
2022/04/27 07:05:09;;;;;;;14.68;11.40;;;17.00;99.90;;;;;;4974806;28;20046;-64
2022/04/27 07:07:35;;;;;;;15.80;11.20;;;17.00;99.90;;;;;;4974730;28;20031;-70
2022/04/27 07:10:02;;;;;;;15.27;11.60;;;17.00;99.90;;;;;;4974632;28;20030;-64
2022/04/27 07:12:28;;;;;;;21.55;12.68;;;17.00;99.90;;;;;;4974574;28;20659;-67
2022/04/27 07:14:54;;;;;;;18.45;11.55;;;17.20;99.90;;;;;;4957194;28;20077;-67
2022/04/27 07:17:20;;;;;;;18.95;13.23;;;17.50;99.90;;;;;;4974215;28;20062;-68
2022/04/27 07:19:46;;;;;;;15.52;12.38;;;17.50;99.90;;;;;;4974257;28;20022;-63
2022/04/27 07:22:12;;;;;;;16.27;11.18;;;17.70;99.90;;;;;;4957002;28;20030;-69
2022/04/27 07:24:38;;;;;;;12.70;10.93;;;18.00;99.90;;;;;;4974485;28;20027;-67
2022/04/27 07:27:05;;;;;;;14.05;12.48;;;18.40;99.90;;;;;;4974390;28;20106;-65
2022/04/27 07:29:31;;;;;;;13.63;10.98;;;18.60;99.90;;;;;;4974276;28;20027;-64
2022/04/27 07:31:59;;;;;;;12.55;10.35;;;18.80;99.90;;;;;;4969061;28;20137;-68
2022/04/27 07:34:25;;;;;;;16.25;10.52;;;18.80;99.90;;;;;;4993494;28;20034;-69
2022/04/27 07:36:51;;;;;;;12.45;9.88;;;19.00;99.90;;;;;;4993618;28;20076;-69
2022/04/27 07:39:17;;;;;;;12.73;11.38;;;19.10;99.90;;;;;;4992965;28;20034;-67
2022/04/27 07:41:45;;;;;;;19.55;9.85;;;19.00;99.90;;;;;;4992558;28;20113;-65
2022/04/27 07:44:12;;;;;;;15.10;10.75;;;18.90;99.90;;;;;;4975961;28;20034;-65
2022/04/27 07:46:37;;;;;;;20.48;10.95;;;18.90;99.90;;;;;;4993134;28;20394;-67
2022/04/27 07:49:03;;;;;;;14.75;9.52;;;18.90;99.90;;;;;;4993264;28;20133;-65
2022/04/27 07:51:29;;;;;;;21.05;15.20;;;18.70;99.90;;;;;;4975856;28;20035;-66
2022/04/27 07:53:55;;;;;;;11.55;8.43;;;18.90;99.90;;;;;;4993401;28;20038;-66
2022/04/27 07:56:21;;;;;;;9.48;7.05;;;18.90;99.90;;;;;;4993577;28;20089;-68
2022/04/27 07:58:46;;;;;;;20.38;7.68;;;18.90;99.90;;;;;;4993584;28;20102;-68
2022/04/27 08:01:12;;;;;;;15.25;6.95;;;18.90;99.90;;;;;;4975965;28;20031;-67
2022/04/27 08:03:38;;;;;;;15.80;7.88;;;18.90;99.90;;;;;;4993452;28;20049;-68
2022/04/27 08:06:04;;;;;;;14.52;6.72;;;18.90;99.90;;;;;;4993522;28;20026;-69
2022/04/27 08:08:31;;;;;;;17.95;6.63;;;19.00;99.90;;;;;;4985590;28;20018;-67
2022/04/27 08:11:00;;;;;;;15.18;6.75;;;18.80;99.90;;;;;;4993075;28;20030;-66
2022/04/27 08:13:26;;;;;;;11.85;7.65;;;18.80;99.90;;;;;;4993296;28;20376;-67
2022/04/27 08:15:52;;;;;;;16.38;8.50;;;18.90;99.90;;;;;;4975774;28;20131;-67
2022/04/27 08:18:19;;;;;;;19.25;9.63;;;18.90;99.90;;;;;;4993335;28;20383;-68
2022/04/27 08:23:33;;;;;;;16.00;8.45;;;18.90;99.90;;;;;;4992957;28;20569;-67
2022/04/27 08:26:05;;;;;;;10.45;8.60;;;19.20;99.90;;;;;;4993272;28;20026;-66
2022/04/27 08:28:31;;;;;;;10.43;6.47;;;19.10;99.90;;;;;;4993276;28;20026;-67
2022/04/27 08:30:58;;;;;;;10.50;5.93;;;19.00;99.90;;;;;;4993863;28;20046;-67
2022/04/27 08:33:24;;;;;;;14.73;6.80;;;19.10;99.90;;;;;;4996857;28;20026;-64
2022/04/27 08:35:51;;;;;;;9.07;5.80;;;19.40;99.90;;;;;;4996954;28;20027;-65
2022/04/27 08:38:16;;;;;;;8.88;5.72;;;19.30;99.90;;;;;;4979452;28;20459;-66
2022/04/27 08:40:45;;;;;;;6.60;4.60;;;19.50;99.90;;;;;;4996794;28;20032;-66
2022/04/27 08:43:13;;;;;;;13.43;5.70;;;20.00;99.90;;;;;;4996826;28;20050;-66
2022/04/27 08:45:41;;;;;;;8.02;5.55;;;20.80;99.90;;;;;;4996476;28;20395;-66
2022/04/27 08:48:07;;;;;;;9.10;4.35;;;21.10;99.90;;;;;;4996783;28;20027;-65
2022/04/27 08:50:34;;;;;;;12.15;5.00;;;21.10;99.90;;;;;;4960069;28;20475;-65
2022/04/27 08:53:00;;;;;;;13.82;4.78;;;20.40;99.90;;;;;;4976467;28;20038;-66
2022/04/27 08:55:28;;;;;;;8.25;5.13;;;20.20;99.90;;;;;;4959624;28;20079;-64
2022/04/27 08:58:15;;;;;;;6.55;4.60;;;20.50;99.90;;;;;;4958665;28;20105;-64
2022/04/27 09:00:42;;;;;;;5.00;4.05;;;20.40;99.90;;;;;;4975831;28;20139;-64
2022/04/27 09:03:41;;;;;;;6.55;5.00;;;20.30;99.90;;;;;;4976149;28;20045;-66
2022/04/27 09:06:10;;;;;;;5.90;3.95;;;20.40;99.90;;;;;;4935993;29;20123;-65
2022/04/27 09:08:43;;;;;;;10.50;7.82;;;20.70;99.90;;;;;;4934573;29;20036;-65
2022/04/27 09:11:32;;;;;;;8.85;6.07;;;20.90;99.90;;;;;;4935572;29;20027;-65
2022/04/27 09:14:01;;;;;;;8.10;6.22;;;21.30;99.90;;;;;;4935100;29;20083;-65
2022/04/27 09:22:27;;;;;;;9.40;6.47;;;21.10;99.90;;;;;;4942002;29;20042;-66
2022/04/27 09:24:58;;;;;;;7.00;6.32;;;20.70;99.90;;;;;;4954794;29;20040;-65
2022/04/27 09:27:25;;;;;;;9.02;6.63;;;20.90;99.90;;;;;;4945844;29;20071;-68
2022/04/27 09:29:57;;;;;;;8.57;7.30;;;21.50;99.90;;;;;;4953743;29;20043;-67
2022/04/27 09:32:23;;;;;;;8.02;6.78;;;21.60;99.90;;;;;;4954195;29;20603;-66
2022/04/27 09:34:50;;;;;;;6.65;5.65;;;21.80;99.90;;;;;;4944618;29;20047;-69
2022/04/27 09:37:24;;;;;;;6.47;5.50;;;21.90;99.90;;;;;;4934851;29;20039;-69
2022/04/27 09:40:06;;;;;;;7.80;4.88;;;21.70;99.90;;;;;;4934939;29;20032;-71
2022/04/27 09:42:33;;;;;;;5.40;4.82;;;21.70;99.90;;;;;;4969569;28;20685;-69
2022/04/27 09:45:19;;;;;;;5.50;3.88;;;21.90;99.90;;;;;;4958904;28;20476;-67
2022/04/27 09:47:50;;;;;;;9.32;4.25;;;21.90;99.90;;;;;;4975830;28;20033;-65
2022/04/27 09:50:17;;;;;;;7.20;3.83;;;22.20;99.90;;;;;;4958857;28;20030;-69
2022/04/27 09:52:44;;;;;;;4.68;3.95;;;22.40;99.90;;;;;;4975788;28;20042;-69
2022/04/27 09:55:10;;;;;;;10.18;5.10;;;22.70;99.90;;;;;;4975522;28;20468;-68
2022/04/27 09:57:41;;;;;;;6.75;3.50;;;23.10;99.90;;;;;;4975923;28;20027;-68
2022/04/27 10:00:09;;;;;;;7.20;3.55;;;23.40;99.90;;;;;;4958638;28;20130;-69
2022/04/27 10:02:37;;;;;;;4.30;3.00;;;23.30;99.90;;;;;;4975964;28;20031;-69
2022/04/27 10:05:04;;;;;;;3.05;2.58;;;23.40;99.90;;;;;;4967658;28;20477;-68
2022/04/27 10:07:32;;;;;;;4.72;2.55;;;23.30;99.90;;;;;;4995287;28;20380;-71
2022/04/27 10:09:59;;;;;;;8.45;3.25;;;23.50;99.30;;;;;;4977737;28;20088;-70
2022/04/27 10:12:25;;;;;;;3.08;2.75;;;23.70;99.90;;;;;;4995268;28;20038;-71
2022/04/27 10:14:51;;;;;;;3.50;2.22;;;23.80;99.90;;;;;;4995312;28;20041;-71
2022/04/27 10:17:17;;;;;;;4.72;2.63;;;23.80;99.90;;;;;;4995276;28;20035;-72
2022/04/27 10:19:47;;;;;;;6.53;2.72;;;23.50;98.60;;;;;;4994112;28;20026;-71
2022/04/27 10:22:28;;;;;;;6.45;3.15;;;23.60;99.30;;;;;;4995113;28;20030;-71
2022/04/27 10:24:54;;;;;;;;;;;24.10;99.90;;;;;;4995653;28;20026;-72
2022/04/27 10:27:33;;;;;;;3.97;2.80;;;24.20;97.30;;;;;;4994894;28;19910;-69
2022/04/27 10:30:10;;;;;;;5.28;2.83;;;24.40;96.70;;;;;;4977790;28;20102;-69
2022/04/27 10:32:41;;;;;;;3.08;1.80;;;24.80;95.60;;;;;;4973777;28;20054;-72
2022/04/27 10:35:13;;;;;;;4.72;2.55;;;25.10;93.50;;;;;;4957911;28;20031;-72
2022/04/27 10:37:54;;;;;;;5.50;2.90;;;25.50;94.80;;;;;;4975408;28;20031;-72
2022/04/27 10:40:30;;;;;;;;;;;26.00;93.90;;;;;;4958561;28;20022;-71
2022/04/27 10:43:03;;;;;;;6.35;2.90;;;27.10;92.60;;;;;;4975563;28;19910;-71
2022/04/27 10:45:29;;;;;;;5.70;2.85;;;27.00;90.40;;;;;;4975311;28;20471;-72
2022/04/27 10:47:55;;;;;;;5.47;2.53;;;27.50;85.60;;;;;;4975531;28;20057;-71
2022/04/27 10:50:33;;;;;;;5.80;1.90;;;28.30;85.00;;;;;;4975298;28;20030;-72
2022/04/27 10:53:19;;;;;;;5.32;1.67;;;28.90;83.50;;;;;;4974818;28;20033;-71
2022/04/27 10:55:48;;;;;;;6.82;3.28;;;28.90;78.60;;;;;;4975222;28;20035;-72
2022/04/27 10:58:15;;;;;;;5.75;2.13;;;30.70;72.50;;;;;;4975178;28;20117;-71
2022/04/27 11:01:02;;;;;;;2.38;1.52;;;31.00;73.30;;;;;;4975195;28;20106;-72
2022/04/27 11:03:39;;;;;;;2.97;1.42;;;30.80;72.10;;;;;;4975072;28;20034;-71
2022/04/27 11:06:08;;;;;;;2.88;1.75;;;30.70;73.30;;;;;;4974978;28;20022;-72
2022/04/27 11:09:08;;;;;;;1.73;1.60;;;30.80;70.60;;;;;;4974670;28;20085;-73
2022/04/27 11:12:05;;;;;;;1.90;1.80;;;30.20;68.60;;;;;;4974030;28;20039;-71
2022/04/27 11:14:36;;;;;;;2.20;1.35;;;31.40;68.30;;;;;;4972155;28;20395;-70
2022/04/27 11:17:02;;;;;;;2.65;1.65;;;31.10;66.50;;;;;;4974756;28;20030;-69
2022/04/27 11:19:35;;;;;;;3.55;1.85;;;31.90;65.40;;;;;;4974048;28;20031;-69
2022/04/27 11:22:15;;;;;;;4.50;1.65;;;32.90;64.30;;;;;;4954583;28;20402;-73
2022/04/27 11:24:44;;;;;;;7.07;2.05;;;34.00;61.30;;;;;;4954188;28;20546;-73
2022/04/27 11:27:10;;;;;;;3.38;2.40;;;34.00;60.40;;;;;;4973416;28;20029;-73
2022/04/27 11:29:37;;;;;;;4.93;1.88;;;34.40;61.20;;;;;;4970961;28;20114;-74
2022/04/27 11:32:07;;;;;;;2.17;1.50;;;33.00;57.70;;;;;;4972905;28;20074;-72
2022/04/27 11:34:33;;;;;;;5.70;2.45;;;33.80;60.60;;;;;;4973406;28;20058;-72
2022/04/27 11:37:15;;;;;;;4.65;2.38;;;33.80;58.40;;;;;;4956075;28;20054;-72
2022/04/27 11:39:41;;;;;;;1.77;1.50;;;;;;;;;;4973293;28;20121;-73
2022/04/27 11:42:07;;;;;;;2.97;1.73;;;32.90;68.10;;;;;;4974155;28;20023;-72
2022/04/27 11:44:34;;;;;;;5.05;2.65;;;33.70;60.40;;;;;;4974227;28;20149;-73
2022/04/27 11:47:00;;;;;;;6.40;3.17;;;35.30;56.60;;;;;;4973802;28;20113;-72
2022/04/27 11:49:26;;;;;;;6.30;2.13;;;35.90;54.80;;;;;;4974485;28;20023;-72
2022/04/27 11:51:55;;;;;;;6.40;2.22;;;;;;;;;;4974250;28;20133;-72
2022/04/27 11:54:32;;;;;;;3.30;1.80;;;34.40;55.70;;;;;;4974272;28;20126;-73
2022/04/27 11:57:03;;;;;;;3.42;2.15;;;32.30;55.00;;;;;;4956636;28;20027;-73
2022/04/27 11:59:45;;;;;;;2.78;2.40;;;32.70;57.70;;;;;;4956799;28;20031;-72
2022/04/27 12:02:11;;;;;;;2.90;2.47;;;33.80;58.10;;;;;;4974058;28;20046;-71
2022/04/27 12:04:38;;;;;;;2.25;2.00;;;33.10;58.10;;;;;;4974320;28;20038;-73
2022/04/27 12:07:17;;;;;;;4.35;2.55;;;33.30;55.60;;;;;;4976963;28;20034;-73
2022/04/27 12:10:00;;;;;;;6.47;3.25;;;33.80;56.90;;;;;;4960871;28;20065;-73
2022/04/27 12:12:31;;;;;;;5.65;2.90;;;33.70;57.70;;;;;;4960731;28;20419;-72
2022/04/27 12:15:02;;;;;;;4.60;2.88;;;33.70;57.40;;;;;;4978614;28;20039;-72
2022/04/27 12:17:47;;;;;;;7.82;3.47;;;32.60;59.60;;;;;;4978537;28;20490;-73
2022/04/27 12:20:37;;;;;;;4.82;3.17;;;30.60;61.30;;;;;;4977932;28;20041;-71
2022/04/27 12:23:15;;;;;;;4.72;3.30;;;30.10;62.40;;;;;;4977905;28;20523;-72
2022/04/27 12:26:02;;;;;;;4.82;3.03;;;28.80;65.30;;;;;;4977959;28;20029;-71
2022/04/27 12:28:29;;;;;;;5.25;3.10;;;31.60;92.10;;;;;;4977427;28;20062;-71
2022/04/27 12:31:09;;;;;;;5.63;2.97;;;;;;;;;;4977536;28;20043;-72
2022/04/27 12:37:29;;;;;;;3.22;2.85;;;33.80;77.70;;;;;;4977658;28;20038;-72
2022/04/27 12:39:41;;;;;;;1.77;1.67;;;35.80;54.30;;;;;;4979657;28;20045;-71
2022/04/27 12:42:09;;;;;;;4.00;1.90;;;36.00;51.40;;;;;;4974892;28;20031;-72
2022/04/27 12:44:42;;;;;;;4.72;2.08;;;35.70;52.20;;;;;;4958014;28;20031;-71
2022/04/27 12:47:12;;;;;;;3.22;2.35;;;;;;;;;;4975365;28;20140;-73
2022/04/27 12:49:38;;;;;;;4.70;2.10;;;;;;;;;;4975321;28;20057;-72
2022/04/27 12:52:32;;;;;;;3.92;1.90;;;37.40;54.30;;;;;;4975281;28;20034;-73
2022/04/27 12:55:14;;;;;;;2.75;1.58;;;36.80;49.00;;;;;;4958393;28;20031;-73
2022/04/27 12:57:51;;;;;;;6.18;1.40;;;36.10;50.00;;;;;;4977453;28;20031;-73
2022/04/27 13:00:20;;;;;;;2.65;1.73;;;35.00;49.20;;;;;;4977059;28;20031;-74
2022/04/27 13:02:47;;;;;;;7.72;3.10;;;35.40;50.20;;;;;;4959666;28;20031;-74
2022/04/27 13:05:13;;;;;;;3.53;1.85;;;36.50;51.00;;;;;;4976969;28;20035;-73
2022/04/27 13:07:42;;;;;;;2.00;1.90;;;35.80;49.00;;;;;;4959443;28;20034;-73
2022/04/27 13:12:53;;;;;;;3.33;2.50;;;36.10;49.10;;;;;;4976517;28;20097;-73